sensor_id;sensor_type;location;lat;lon;timestamp;temperature;humidity
26103;DHT22;69760;49.380;8.998;2023-08-17T05:15:27;19.40;99.90
26103;DHT22;69760;49.380;8.998;2023-08-17T12:08:50;30.90;91.80
26103;DHT22;69760;49.380;8.998;2023-08-17T12:11:16;30.90;91.00
26103;DHT22;69760;49.380;8.998;2023-08-17T12:13:52;30.80;89.80
26103;DHT22;69760;49.380;8.998;2023-08-17T12:16:19;30.80;90.60
26103;DHT22;69760;49.380;8.998;2023-08-17T12:18:48;30.60;91.90
26103;DHT22;69760;49.380;8.998;2023-08-17T12:21:14;30.40;92.70
26103;DHT22;69760;49.380;8.998;2023-08-17T12:23:40;30.20;93.70
26103;DHT22;69760;49.380;8.998;2023-08-17T12:26:07;29.80;93.60
26103;DHT22;69760;49.380;8.998;2023-08-17T12:28:32;29.50;94.80
26103;DHT22;69760;49.380;8.998;2023-08-17T12:31:00;29.20;95.80
26103;DHT22;69760;49.380;8.998;2023-08-17T12:33:25;28.90;96.10
26103;DHT22;69760;49.380;8.998;2023-08-17T12:35:51;28.70;96.80
26103;DHT22;69760;49.380;8.998;2023-08-17T12:38:17;28.50;97.30
26103;DHT22;69760;49.380;8.998;2023-08-17T12:40:42;28.30;97.80
26103;DHT22;69760;49.380;8.998;2023-08-17T12:43:08;28.20;98.70
26103;DHT22;69760;49.380;8.998;2023-08-17T12:45:33;28.10;99.20
26103;DHT22;69760;49.380;8.998;2023-08-17T12:47:59;28.00;99.10
26103;DHT22;69760;49.380;8.998;2023-08-17T12:50:25;27.90;99.70
26103;DHT22;69760;49.380;8.998;2023-08-17T12:52:51;27.70;99.70
26103;DHT22;69760;49.380;8.998;2023-08-17T12:55:16;27.70;99.90
26103;DHT22;69760;49.380;8.998;2023-08-17T12:57:42;27.60;99.90
26103;DHT22;69760;49.380;8.998;2023-08-17T13:00:08;27.70;99.90
26103;DHT22;69760;49.380;8.998;2023-08-17T13:02:34;27.60;99.90
26103;DHT22;69760;49.380;8.998;2023-08-17T13:04:59;27.60;99.90
26103;DHT22;69760;49.380;8.998;2023-08-17T13:07:25;27.70;99.90
26103;DHT22;69760;49.380;8.998;2023-08-17T13:09:50;27.70;99.90
26103;DHT22;69760;49.380;8.998;2023-08-17T13:12:16;27.70;99.90
26103;DHT22;69760;49.380;8.998;2023-08-17T13:14:42;27.70;99.90
26103;DHT22;69760;49.380;8.998;2023-08-17T13:17:07;27.70;99.90
26103;DHT22;69760;49.380;8.998;2023-08-17T13:19:33;27.80;99.90
26103;DHT22;69760;49.380;8.998;2023-08-17T13:21:59;27.90;99.90
26103;DHT22;69760;49.380;8.998;2023-08-17T13:24:25;28.00;99.90
26103;DHT22;69760;49.380;8.998;2023-08-17T13:26:51;28.20;99.90
26103;DHT22;69760;49.380;8.998;2023-08-17T13:29:19;28.30;99.90
26103;DHT22;69760;49.380;8.998;2023-08-17T13:31:47;28.40;99.90
26103;DHT22;69760;49.380;8.998;2023-08-17T13:34:13;28.50;99.90
26103;DHT22;69760;49.380;8.998;2023-08-17T13:36:39;28.60;99.70
26103;DHT22;69760;49.380;8.998;2023-08-17T13:39:05;28.70;99.90
26103;DHT22;69760;49.380;8.998;2023-08-17T13:41:31;28.70;99.70
26103;DHT22;69760;49.380;8.998;2023-08-17T13:43:57;28.80;99.20
26103;DHT22;69760;49.380;8.998;2023-08-17T13:46:23;28.80;99.30
26103;DHT22;69760;49.380;8.998;2023-08-17T13:48:48;28.90;99.20
26103;DHT22;69760;49.380;8.998;2023-08-17T13:51:14;28.90;99.60
26103;DHT22;69760;49.380;8.998;2023-08-17T13:53:40;28.90;99.90
26103;DHT22;69760;49.380;8.998;2023-08-17T13:56:06;28.90;99.60
26103;DHT22;69760;49.380;8.998;2023-08-17T13:58:31;29.00;99.90
26103;DHT22;69760;49.380;8.998;2023-08-17T14:00:57;29.00;99.90
26103;DHT22;69760;49.380;8.998;2023-08-17T14:03:22;29.10;99.90
26103;DHT22;69760;49.380;8.998;2023-08-17T14:05:48;29.30;99.60
26103;DHT22;69760;49.380;8.998;2023-08-17T14:08:14;29.40;99.50
26103;DHT22;69760;49.380;8.998;2023-08-17T14:10:39;29.40;99.30
26103;DHT22;69760;49.380;8.998;2023-08-17T14:13:05;29.60;99.10
26103;DHT22;69760;49.380;8.998;2023-08-17T14:15:31;29.60;97.90
26103;DHT22;69760;49.380;8.998;2023-08-17T14:17:56;29.70;98.60
26103;DHT22;69760;49.380;8.998;2023-08-17T14:20:22;29.80;98.60
26103;DHT22;69760;49.380;8.998;2023-08-17T14:22:47;29.80;98.30
26103;DHT22;69760;49.380;8.998;2023-08-17T14:25:13;30.00;97.70
26103;DHT22;69760;49.380;8.998;2023-08-17T14:27:39;30.10;97.30
26103;DHT22;69760;49.380;8.998;2023-08-17T14:30:05;30.20;96.80
26103;DHT22;69760;49.380;8.998;2023-08-17T14:32:31;30.20;96.70
26103;DHT22;69760;49.380;8.998;2023-08-17T14:34:56;30.30;97.00
26103;DHT22;69760;49.380;8.998;2023-08-17T14:37:22;30.30;97.20
26103;DHT22;69760;49.380;8.998;2023-08-17T14:39:47;30.40;97.30
26103;DHT22;69760;49.380;8.998;2023-08-17T14:42:13;30.40;97.30
26103;DHT22;69760;49.380;8.998;2023-08-17T14:44:38;30.40;97.00
26103;DHT22;69760;49.380;8.998;2023-08-17T14:47:04;30.30;96.30
26103;DHT22;69760;49.380;8.998;2023-08-17T14:49:30;30.30;96.80
26103;DHT22;69760;49.380;8.998;2023-08-17T14:51:56;30.40;96.80
26103;DHT22;69760;49.380;8.998;2023-08-17T14:54:21;30.40;97.00
26103;DHT22;69760;49.380;8.998;2023-08-17T14:56:47;30.40;96.90
26103;DHT22;69760;49.380;8.998;2023-08-17T14:59:12;30.40;96.30
26103;DHT22;69760;49.380;8.998;2023-08-17T15:01:38;30.40;96.40
26103;DHT22;69760;49.380;8.998;2023-08-17T15:04:03;30.50;96.30
26103;DHT22;69760;49.380;8.998;2023-08-17T15:06:29;30.40;96.10
26103;DHT22;69760;49.380;8.998;2023-08-17T15:08:55;30.30;95.80
26103;DHT22;69760;49.380;8.998;2023-08-17T15:11:20;30.20;95.80
26103;DHT22;69760;49.380;8.998;2023-08-17T15:13:46;30.10;96.30
26103;DHT22;69760;49.380;8.998;2023-08-17T15:16:11;30.20;96.40
26103;DHT22;69760;49.380;8.998;2023-08-17T15:18:38;30.40;95.90
26103;DHT22;69760;49.380;8.998;2023-08-17T15:21:03;30.40;95.30
26103;DHT22;69760;49.380;8.998;2023-08-17T15:23:29;30.50;95.20
26103;DHT22;69760;49.380;8.998;2023-08-17T15:25:54;30.60;94.90
26103;DHT22;69760;49.380;8.998;2023-08-17T15:28:20;30.70;94.60
26103;DHT22;69760;49.380;8.998;2023-08-17T15:30:48;30.70;94.20
26103;DHT22;69760;49.380;8.998;2023-08-17T15:33:14;30.80;94.80
26103;DHT22;69760;49.380;8.998;2023-08-17T15:35:40;30.80;94.00
26103;DHT22;69760;49.380;8.998;2023-08-17T15:38:05;30.80;93.70
26103;DHT22;69760;49.380;8.998;2023-08-17T15:40:31;30.90;94.20
26103;DHT22;69760;49.380;8.998;2023-08-17T15:42:56;30.90;94.10
26103;DHT22;69760;49.380;8.998;2023-08-17T15:45:22;31.00;94.20
26103;DHT22;69760;49.380;8.998;2023-08-17T15:47:47;31.00;94.80
26103;DHT22;69760;49.380;8.998;2023-08-17T15:50:13;31.10;95.70
26103;DHT22;69760;49.380;8.998;2023-08-17T15:52:39;31.10;95.70
26103;DHT22;69760;49.380;8.998;2023-08-17T15:55:05;31.10;96.00
26103;DHT22;69760;49.380;8.998;2023-08-17T15:57:30;31.20;95.70
26103;DHT22;69760;49.380;8.998;2023-08-17T15:59:56;31.20;95.70
26103;DHT22;69760;49.380;8.998;2023-08-17T16:02:21;31.30;95.40
26103;DHT22;69760;49.380;8.998;2023-08-17T16:04:47;31.10;95.00
26103;DHT22;69760;49.380;8.998;2023-08-17T16:07:13;31.10;95.30
26103;DHT22;69760;49.380;8.998;2023-08-17T16:09:39;31.10;95.20
26103;DHT22;69760;49.380;8.998;2023-08-17T16:12:05;31.10;95.10
26103;DHT22;69760;49.380;8.998;2023-08-17T16:14:30;31.10;95.20
26103;DHT22;69760;49.380;8.998;2023-08-17T16:16:56;31.00;95.20
26103;DHT22;69760;49.380;8.998;2023-08-17T16:19:22;31.10;95.40
26103;DHT22;69760;49.380;8.998;2023-08-17T16:21:47;31.00;95.00
26103;DHT22;69760;49.380;8.998;2023-08-17T16:24:13;31.00;95.00
26103;DHT22;69760;49.380;8.998;2023-08-17T16:26:38;31.10;94.90
26103;DHT22;69760;49.380;8.998;2023-08-17T16:29:04;31.10;94.70
26103;DHT22;69760;49.380;8.998;2023-08-17T16:31:33;31.20;94.90
26103;DHT22;69760;49.380;8.998;2023-08-17T16:33:59;31.30;94.70
26103;DHT22;69760;49.380;8.998;2023-08-17T16:36:25;31.40;94.50
26103;DHT22;69760;49.380;8.998;2023-08-17T16:38:50;31.30;94.10
26103;DHT22;69760;49.380;8.998;2023-08-17T16:41:16;31.30;94.80
26103;DHT22;69760;49.380;8.998;2023-08-17T16:43:41;31.30;94.80
26103;DHT22;69760;49.380;8.998;2023-08-17T16:46:07;31.30;95.00
26103;DHT22;69760;49.380;8.998;2023-08-17T16:48:32;31.30;95.10
26103;DHT22;69760;49.380;8.998;2023-08-17T16:50:58;31.30;95.10
26103;DHT22;69760;49.380;8.998;2023-08-17T16:53:23;31.30;94.80
26103;DHT22;69760;49.380;8.998;2023-08-17T16:55:49;31.20;95.70
26103;DHT22;69760;49.380;8.998;2023-08-17T16:58:14;31.10;95.60
26103;DHT22;69760;49.380;8.998;2023-08-17T17:00:40;31.10;95.80
26103;DHT22;69760;49.380;8.998;2023-08-17T17:03:06;31.00;95.80
26103;DHT22;69760;49.380;8.998;2023-08-17T17:05:31;30.90;95.40
26103;DHT22;69760;49.380;8.998;2023-08-17T17:07:57;30.80;95.50
26103;DHT22;69760;49.380;8.998;2023-08-17T17:10:22;30.80;95.20
26103;DHT22;69760;49.380;8.998;2023-08-17T17:12:48;30.70;95.20
26103;DHT22;69760;49.380;8.998;2023-08-17T17:15:14;30.60;95.40
26103;DHT22;69760;49.380;8.998;2023-08-17T17:17:40;30.60;95.50
26103;DHT22;69760;49.380;8.998;2023-08-17T17:20:06;30.40;95.60
26103;DHT22;69760;49.380;8.998;2023-08-17T17:22:32;30.40;95.80
26103;DHT22;69760;49.380;8.998;2023-08-17T17:24:57;30.20;95.90
26103;DHT22;69760;49.380;8.998;2023-08-17T17:27:23;30.10;96.40
26103;DHT22;69760;49.380;8.998;2023-08-17T17:29:48;30.00;96.50
26103;DHT22;69760;49.380;8.998;2023-08-17T17:32:14;30.00;96.30
26103;DHT22;69760;49.380;8.998;2023-08-17T17:34:40;30.00;96.20
26103;DHT22;69760;49.380;8.998;2023-08-17T17:37:06;30.00;96.30
26103;DHT22;69760;49.380;8.998;2023-08-17T17:39:32;30.00;96.20
26103;DHT22;69760;49.380;8.998;2023-08-17T17:41:57;30.00;96.10
26103;DHT22;69760;49.380;8.998;2023-08-17T17:44:23;30.00;96.00
26103;DHT22;69760;49.380;8.998;2023-08-17T17:46:49;29.90;96.10
26103;DHT22;69760;49.380;8.998;2023-08-17T17:49:15;30.00;96.20
26103;DHT22;69760;49.380;8.998;2023-08-17T17:51:40;29.90;96.10
26103;DHT22;69760;49.380;8.998;2023-08-17T17:54:06;29.90;96.80
26103;DHT22;69760;49.380;8.998;2023-08-17T17:56:42;29.90;97.00
26103;DHT22;69760;49.380;8.998;2023-08-17T17:59:09;29.80;97.80
26103;DHT22;69760;49.380;8.998;2023-08-17T18:01:35;29.80;98.30
26103;DHT22;69760;49.380;8.998;2023-08-17T18:04:01;29.80;98.80
26103;DHT22;69760;49.380;8.998;2023-08-17T18:06:27;29.60;99.50
26103;DHT22;69760;49.380;8.998;2023-08-17T18:08:52;29.50;99.70
26103;DHT22;69760;49.380;8.998;2023-08-17T18:11:18;29.50;99.90
26103;DHT22;69760;49.380;8.998;2023-08-17T18:13:44;29.30;99.90
26103;DHT22;69760;49.380;8.998;2023-08-17T18:16:09;29.30;99.90
26103;DHT22;69760;49.380;8.998;2023-08-17T18:18:35;29.20;99.90
26103;DHT22;69760;49.380;8.998;2023-08-17T18:21:06;29.20;99.90
26103;DHT22;69760;49.380;8.998;2023-08-17T18:23:33;29.10;99.90
26103;DHT22;69760;49.380;8.998;2023-08-17T18:25:58;29.10;99.90
26103;DHT22;69760;49.380;8.998;2023-08-17T18:28:24;29.00;99.90
26103;DHT22;69760;49.380;8.998;2023-08-17T18:30:50;28.90;99.90
26103;DHT22;69760;49.380;8.998;2023-08-17T18:33:15;28.80;99.90
26103;DHT22;69760;49.380;8.998;2023-08-17T18:35:41;28.70;99.90
26103;DHT22;69760;49.380;8.998;2023-08-17T18:38:06;28.60;99.90
26103;DHT22;69760;49.380;8.998;2023-08-17T18:40:32;28.50;99.90
26103;DHT22;69760;49.380;8.998;2023-08-17T18:42:57;28.50;99.90
26103;DHT22;69760;49.380;8.998;2023-08-17T18:45:23;28.50;99.90
26103;DHT22;69760;49.380;8.998;2023-08-17T18:47:49;28.40;99.90
26103;DHT22;69760;49.380;8.998;2023-08-17T18:50:15;28.30;99.90
26103;DHT22;69760;49.380;8.998;2023-08-17T18:52:41;28.30;99.90
26103;DHT22;69760;49.380;8.998;2023-08-17T18:55:08;28.20;99.90
26103;DHT22;69760;49.380;8.998;2023-08-17T18:57:37;28.10;99.90
26103;DHT22;69760;49.380;8.998;2023-08-17T19:00:04;28.10;99.90
26103;DHT22;69760;49.380;8.998;2023-08-17T19:02:30;28.00;99.90
26103;DHT22;69760;49.380;8.998;2023-08-17T19:04:56;27.90;99.90
26103;DHT22;69760;49.380;8.998;2023-08-17T19:07:24;27.80;99.90
26103;DHT22;69760;49.380;8.998;2023-08-17T19:09:51;27.70;99.90
26103;DHT22;69760;49.380;8.998;2023-08-17T19:12:17;27.60;99.90
26103;DHT22;69760;49.380;8.998;2023-08-17T19:14:43;27.50;99.90
26103;DHT22;69760;49.380;8.998;2023-08-17T19:17:09;27.40;99.90
26103;DHT22;69760;49.380;8.998;2023-08-17T19:19:35;27.20;99.90
26103;DHT22;69760;49.380;8.998;2023-08-17T19:22:01;27.00;99.90
26103;DHT22;69760;49.380;8.998;2023-08-17T19:24:26;26.80;99.90
26103;DHT22;69760;49.380;8.998;2023-08-17T19:26:52;26.70;99.90
26103;DHT22;69760;49.380;8.998;2023-08-17T19:29:18;26.60;99.90
26103;DHT22;69760;49.380;8.998;2023-08-17T19:31:43;26.60;99.90
26103;DHT22;69760;49.380;8.998;2023-08-17T19:34:09;26.50;99.90
26103;DHT22;69760;49.380;8.998;2023-08-17T19:36:34;26.50;99.90
26103;DHT22;69760;49.380;8.998;2023-08-17T19:39:00;26.50;99.90
26103;DHT22;69760;49.380;8.998;2023-08-17T19:41:26;26.50;99.90
26103;DHT22;69760;49.380;8.998;2023-08-17T19:43:51;26.50;99.90
26103;DHT22;69760;49.380;8.998;2023-08-17T19:46:17;26.50;99.90
26103;DHT22;69760;49.380;8.998;2023-08-17T19:48:42;26.50;99.90
26103;DHT22;69760;49.380;8.998;2023-08-17T19:51:08;26.40;99.90
26103;DHT22;69760;49.380;8.998;2023-08-17T19:53:34;26.40;99.90
26103;DHT22;69760;49.380;8.998;2023-08-17T19:55:59;26.40;99.90
26103;DHT22;69760;49.380;8.998;2023-08-17T19:58:25;26.40;99.90
26103;DHT22;69760;49.380;8.998;2023-08-17T20:00:52;26.40;99.90
26103;DHT22;69760;49.380;8.998;2023-08-17T20:03:18;26.40;99.90
26103;DHT22;69760;49.380;8.998;2023-08-17T20:05:44;26.30;99.90
26103;DHT22;69760;49.380;8.998;2023-08-17T20:08:10;26.30;99.90
26103;DHT22;69760;49.380;8.998;2023-08-17T20:10:35;26.20;99.90
26103;DHT22;69760;49.380;8.998;2023-08-17T20:13:01;26.20;99.90
26103;DHT22;69760;49.380;8.998;2023-08-17T20:15:26;26.20;99.90
26103;DHT22;69760;49.380;8.998;2023-08-17T20:17:52;26.20;99.90
26103;DHT22;69760;49.380;8.998;2023-08-17T20:20:18;26.10;99.90
26103;DHT22;69760;49.380;8.998;2023-08-17T20:22:44;26.10;99.90
26103;DHT22;69760;49.380;8.998;2023-08-17T20:25:09;26.10;99.90
26103;DHT22;69760;49.380;8.998;2023-08-17T20:27:35;26.00;99.90
26103;DHT22;69760;49.380;8.998;2023-08-17T20:30:02;26.00;99.90
26103;DHT22;69760;49.380;8.998;2023-08-17T20:32:28;26.00;99.90
26103;DHT22;69760;49.380;8.998;2023-08-17T20:34:53;25.90;99.90
26103;DHT22;69760;49.380;8.998;2023-08-17T20:37:21;25.90;99.90
26103;DHT22;69760;49.380;8.998;2023-08-17T20:39:46;25.90;99.90
26103;DHT22;69760;49.380;8.998;2023-08-17T20:42:12;25.80;99.90
26103;DHT22;69760;49.380;8.998;2023-08-17T20:44:38;25.80;99.90
26103;DHT22;69760;49.380;8.998;2023-08-17T20:47:04;25.80;99.90
26103;DHT22;69760;49.380;8.998;2023-08-17T20:52:48;25.60;99.90
26103;DHT22;69760;49.380;8.998;2023-08-17T20:55:17;25.50;99.90
26103;DHT22;69760;49.380;8.998;2023-08-17T20:57:42;25.50;99.90
26103;DHT22;69760;49.380;8.998;2023-08-17T21:00:21;25.50;99.90
26103;DHT22;69760;49.380;8.998;2023-08-17T21:02:50;25.40;99.90
26103;DHT22;69760;49.380;8.998;2023-08-17T21:05:42;25.40;99.90
26103;DHT22;69760;49.380;8.998;2023-08-17T21:08:08;25.40;99.90
26103;DHT22;69760;49.380;8.998;2023-08-17T21:10:45;25.30;99.90
26103;DHT22;69760;49.380;8.998;2023-08-17T21:13:15;25.30;99.90
26103;DHT22;69760;49.380;8.998;2023-08-17T21:15:43;25.20;99.90
26103;DHT22;69760;49.380;8.998;2023-08-17T21:18:12;25.20;99.90
26103;DHT22;69760;49.380;8.998;2023-08-17T21:23:40;25.00;99.90
26103;DHT22;69760;49.380;8.998;2023-08-17T21:26:08;24.90;99.90
26103;DHT22;69760;49.380;8.998;2023-08-17T21:28:40;24.80;99.90
26103;DHT22;69760;49.380;8.998;2023-08-17T21:31:23;24.80;99.90
26103;DHT22;69760;49.380;8.998;2023-08-17T21:33:57;24.70;99.90
26103;DHT22;69760;49.380;8.998;2023-08-17T21:36:22;24.60;99.90
26103;DHT22;69760;49.380;8.998;2023-08-17T21:38:49;24.50;99.90
26103;DHT22;69760;49.380;8.998;2023-08-17T21:41:15;24.50;99.90
26103;DHT22;69760;49.380;8.998;2023-08-17T21:43:40;24.50;99.90
26103;DHT22;69760;49.380;8.998;2023-08-17T21:46:06;24.40;99.90
26103;DHT22;69760;49.380;8.998;2023-08-17T21:48:31;24.40;99.90
26103;DHT22;69760;49.380;8.998;2023-08-17T21:50:57;24.30;99.90
26103;DHT22;69760;49.380;8.998;2023-08-17T21:53:23;24.30;99.90
26103;DHT22;69760;49.380;8.998;2023-08-17T21:55:50;24.30;99.90
26103;DHT22;69760;49.380;8.998;2023-08-17T21:58:16;24.20;99.90
26103;DHT22;69760;49.380;8.998;2023-08-17T22:00:43;24.10;99.90
26103;DHT22;69760;49.380;8.998;2023-08-17T22:03:10;24.10;99.90
26103;DHT22;69760;49.380;8.998;2023-08-17T22:05:37;23.90;99.90
26103;DHT22;69760;49.380;8.998;2023-08-17T22:08:03;23.80;99.90
26103;DHT22;69760;49.380;8.998;2023-08-17T22:10:29;23.70;99.90
26103;DHT22;69760;49.380;8.998;2023-08-17T22:12:55;23.60;99.90
26103;DHT22;69760;49.380;8.998;2023-08-17T22:15:21;23.50;99.90
26103;DHT22;69760;49.380;8.998;2023-08-17T22:17:46;23.40;99.90
26103;DHT22;69760;49.380;8.998;2023-08-17T22:20:12;23.30;99.90
26103;DHT22;69760;49.380;8.998;2023-08-17T22:22:38;23.30;99.90
26103;DHT22;69760;49.380;8.998;2023-08-17T22:25:04;23.20;99.90
26103;DHT22;69760;49.380;8.998;2023-08-17T22:27:30;23.20;99.90
26103;DHT22;69760;49.380;8.998;2023-08-17T22:29:56;23.10;99.90
26103;DHT22;69760;49.380;8.998;2023-08-17T22:32:22;23.10;99.90
26103;DHT22;69760;49.380;8.998;2023-08-17T22:34:48;23.10;99.90
26103;DHT22;69760;49.380;8.998;2023-08-17T22:37:14;23.00;99.90
26103;DHT22;69760;49.380;8.998;2023-08-17T22:39:40;23.00;99.90
26103;DHT22;69760;49.380;8.998;2023-08-17T22:42:06;22.90;99.90
26103;DHT22;69760;49.380;8.998;2023-08-17T22:44:32;22.80;99.90
26103;DHT22;69760;49.380;8.998;2023-08-17T22:46:57;22.70;99.90
26103;DHT22;69760;49.380;8.998;2023-08-17T22:49:23;22.60;99.90
26103;DHT22;69760;49.380;8.998;2023-08-17T22:51:48;22.60;99.90
26103;DHT22;69760;49.380;8.998;2023-08-17T22:54:15;22.60;99.90
26103;DHT22;69760;49.380;8.998;2023-08-17T22:56:42;22.50;99.90
26103;DHT22;69760;49.380;8.998;2023-08-17T22:59:07;22.50;99.90
26103;DHT22;69760;49.380;8.998;2023-08-17T23:01:34;22.50;99.90
26103;DHT22;69760;49.380;8.998;2023-08-17T23:03:59;22.50;99.90
26103;DHT22;69760;49.380;8.998;2023-08-17T23:06:25;22.50;99.90
26103;DHT22;69760;49.380;8.998;2023-08-17T23:08:50;22.40;99.90
26103;DHT22;69760;49.380;8.998;2023-08-17T23:11:16;22.30;99.90
26103;DHT22;69760;49.380;8.998;2023-08-17T23:13:42;22.30;99.90
26103;DHT22;69760;49.380;8.998;2023-08-17T23:16:07;22.30;99.90
26103;DHT22;69760;49.380;8.998;2023-08-17T23:18:33;22.30;99.90
26103;DHT22;69760;49.380;8.998;2023-08-17T23:20:58;22.30;99.90
26103;DHT22;69760;49.380;8.998;2023-08-17T23:23:24;22.20;99.90
26103;DHT22;69760;49.380;8.998;2023-08-17T23:25:51;22.30;99.90
26103;DHT22;69760;49.380;8.998;2023-08-17T23:28:16;22.30;99.90
26103;DHT22;69760;49.380;8.998;2023-08-17T23:30:42;22.30;99.90
26103;DHT22;69760;49.380;8.998;2023-08-17T23:33:08;22.30;99.90
26103;DHT22;69760;49.380;8.998;2023-08-17T23:35:35;22.40;99.90
26103;DHT22;69760;49.380;8.998;2023-08-17T23:38:01;22.40;99.90
26103;DHT22;69760;49.380;8.998;2023-08-17T23:40:26;22.50;99.90
26103;DHT22;69760;49.380;8.998;2023-08-17T23:42:52;22.60;99.90
26103;DHT22;69760;49.380;8.998;2023-08-17T23:45:17;22.60;99.90
26103;DHT22;69760;49.380;8.998;2023-08-17T23:47:43;22.70;99.90
26103;DHT22;69760;49.380;8.998;2023-08-17T23:50:09;22.70;99.90
26103;DHT22;69760;49.380;8.998;2023-08-17T23:52:35;22.70;99.90
26103;DHT22;69760;49.380;8.998;2023-08-17T23:55:02;22.80;99.90
26103;DHT22;69760;49.380;8.998;2023-08-17T23:57:30;22.80;99.90
26103;DHT22;69760;49.380;8.998;2023-08-17T23:59:56;22.80;99.90
